Time;durP1;ratioP1;P1;durP2;ratioP2;P2;SDS_P1;SDS_P2;PMS_P1;PMS_P2;Temp;Humidity;BMP_temperature;BMP_pressure;BME280_temperature;BME280_humidity;BME280_pressure;Samples;Min_cycle;Max_cycle;Signal;HPM_P1;HPM_P2
2022/12/11 00:00:17;;;;;;;62.22;23.23;;;-0.50;99.90;;;;;;5067343;28;20063;-67
2022/12/11 00:02:43;;;;;;;61.72;21.35;;;-0.50;99.90;;;;;;5045379;28;20044;-67
2022/12/11 00:05:09;;;;;;;61.55;21.15;;;-0.50;99.90;;;;;;5047258;28;20053;-67
2022/12/11 00:07:34;;;;;;;56.72;21.58;;;-0.50;99.90;;;;;;5078576;28;20088;-67
2022/12/11 00:10:00;;;;;;;58.70;20.50;;;-0.40;99.90;;;;;;5058345;28;20093;-67
2022/12/11 00:12:26;;;;;;;70.43;22.60;;;-0.50;99.90;;;;;;5071336;28;20136;-67
2022/12/11 00:14:52;;;;;;;58.67;20.88;;;-0.50;99.90;;;;;;5067139;28;20491;-67
2022/12/11 00:17:17;;;;;;;55.42;21.30;;;-0.40;99.90;;;;;;5073813;28;20045;-67
2022/12/11 00:19:43;;;;;;;59.40;21.52;;;-0.20;99.90;;;;;;5061407;28;20052;-66
2022/12/11 00:22:09;;;;;;;56.92;22.77;;;-0.30;99.90;;;;;;5048283;28;20060;-66
2022/12/11 00:24:34;;;;;;;61.17;22.35;;;-0.30;99.90;;;;;;5048089;28;20480;-66
2022/12/11 00:27:00;;;;;;;51.20;20.55;;;-0.20;99.90;;;;;;5065559;28;20054;-66
2022/12/11 00:29:26;;;;;;;66.03;23.15;;;-0.20;99.90;;;;;;5065421;28;20041;-66
2022/12/11 00:31:51;;;;;;;57.40;23.20;;;-0.10;99.90;;;;;;5046709;28;20064;-66
2022/12/11 00:34:17;;;;;;;58.28;21.25;;;-0.10;99.90;;;;;;5061673;28;20040;-66
2022/12/11 00:36:43;;;;;;;60.80;23.52;;;-0.10;99.90;;;;;;5067502;28;20048;-66
2022/12/11 00:39:08;;;;;;;61.92;22.52;;;-0.20;99.90;;;;;;5053400;28;20070;-66
2022/12/11 00:41:34;;;;;;;60.22;23.10;;;-0.10;99.90;;;;;;5066733;28;20052;-66
2022/12/11 00:44:00;;;;;;;64.75;24.27;;;-0.10;99.90;;;;;;5053168;28;20055;-66
2022/12/11 00:46:26;;;;;;;63.70;22.25;;;-0.10;99.90;;;;;;5057641;28;20053;-66
2022/12/11 00:48:52;;;;;;;56.70;24.23;;;0.10;99.90;;;;;;5052675;28;20052;-66
2022/12/11 00:51:18;;;;;;;57.15;21.10;;;0.00;99.90;;;;;;5068317;28;20610;-66
2022/12/11 00:53:43;;;;;;;55.88;23.08;;;0.00;99.90;;;;;;5064759;28;20061;-66
2022/12/11 00:56:16;;;;;;;58.63;21.58;;;0.10;99.90;;;;;;5058222;28;20415;-66
2022/12/11 00:58:41;;;;;;;52.13;20.50;;;0.00;99.90;;;;;;5063635;28;20052;-66
2022/12/11 01:01:17;;;;;;;61.17;21.08;;;0.10;99.90;;;;;;5048275;28;20049;-66
2022/12/11 01:03:43;;;;;;;53.58;19.30;;;0.10;99.90;;;;;;5045993;28;20070;-67
2022/12/11 01:06:14;;;;;;;55.75;20.35;;;0.00;99.90;;;;;;5063902;28;20048;-66
2022/12/11 01:08:40;;;;;;;45.20;17.80;;;0.00;99.90;;;;;;5053099;28;20059;-66
2022/12/11 01:11:09;;;;;;;57.83;19.85;;;0.10;99.90;;;;;;5065656;28;20048;-66
2022/12/11 01:13:36;;;;;;;54.92;18.17;;;-0.10;99.90;;;;;;5063673;28;20045;-66
2022/12/11 01:16:20;;;;;;;53.63;18.88;;;-0.10;99.90;;;;;;5065462;28;20566;-66
2022/12/11 01:18:45;;;;;;;51.85;18.33;;;-0.10;99.90;;;;;;5066444;28;20109;-66
2022/12/11 01:21:12;;;;;;;55.60;18.77;;;0.00;99.90;;;;;;5045906;28;20076;-66
2022/12/11 01:23:38;;;;;;;46.17;17.52;;;-0.10;99.90;;;;;;5065969;28;20044;-66
2022/12/11 01:26:09;;;;;;;52.83;18.00;;;0.00;99.90;;;;;;5083745;28;20049;-66
2022/12/11 01:28:36;;;;;;;53.28;20.23;;;-0.10;99.90;;;;;;5083589;28;20040;-66
2022/12/11 01:31:01;;;;;;;49.20;18.05;;;-0.10;99.90;;;;;;5083163;28;20056;-66
2022/12/11 01:33:27;;;;;;;54.97;18.00;;;0.00;99.90;;;;;;5049376;28;20055;-66
2022/12/11 01:35:54;;;;;;;53.72;18.33;;;0.00;99.90;;;;;;5066581;28;20049;-66
2022/12/11 01:38:19;;;;;;;50.40;18.73;;;0.00;99.90;;;;;;5071169;28;20044;-66
2022/12/11 01:40:50;;;;;;;52.10;18.88;;;0.10;99.90;;;;;;5083297;28;20528;-66
2022/12/11 01:43:15;;;;;;;55.10;18.92;;;0.00;99.90;;;;;;5058763;28;20547;-66
2022/12/11 01:45:45;;;;;;;47.90;18.48;;;0.00;99.90;;;;;;5058121;28;20052;-66
2022/12/11 01:48:16;;;;;;;49.35;18.23;;;0.20;99.90;;;;;;5077086;28;20063;-66
2022/12/11 01:50:52;;;;;;;47.60;18.35;;;0.20;99.90;;;;;;5064290;28;20060;-66
2022/12/11 01:53:22;;;;;;;51.00;18.00;;;0.20;99.90;;;;;;5055742;28;20056;-66
2022/12/11 01:55:50;;;;;;;47.08;19.60;;;0.10;99.90;;;;;;5066661;28;20047;-66
2022/12/11 01:58:19;;;;;;;44.42;17.00;;;0.20;99.90;;;;;;5085531;28;20040;-66
2022/12/11 02:00:45;;;;;;;49.45;17.27;;;0.20;99.90;;;;;;5060187;28;20082;-66
2022/12/11 02:03:10;;;;;;;42.67;16.13;;;0.30;99.90;;;;;;5093779;28;20043;-66
2022/12/11 02:05:36;;;;;;;48.30;16.98;;;0.30;99.90;;;;;;5058666;28;20048;-66
2022/12/11 02:08:02;;;;;;;48.67;17.58;;;0.30;99.90;;;;;;5067233;28;20405;-66
2022/12/11 02:11:08;;;;;;;47.17;16.75;;;0.30;99.90;;;;;;5065019;28;20044;-66
2022/12/11 02:14:02;;;;;;;48.55;18.23;;;0.30;99.90;;;;;;4987076;28;20058;-66
2022/12/11 02:16:49;;;;;;;52.55;19.27;;;0.30;99.90;;;;;;4995198;28;20058;-66
2022/12/11 02:19:28;;;;;;;55.72;19.58;;;0.20;99.90;;;;;;4996926;28;20154;-66
2022/12/11 02:21:56;;;;;;;51.10;18.15;;;0.30;99.90;;;;;;4984595;28;20495;-66
2022/12/11 02:24:44;;;;;;;52.20;18.98;;;0.20;99.90;;;;;;4967497;28;20079;-66
2022/12/11 02:27:13;;;;;;;52.53;18.15;;;0.20;99.90;;;;;;4967408;28;20558;-66
2022/12/11 02:30:09;;;;;;;51.60;17.75;;;0.20;99.90;;;;;;4980142;28;20097;-66
2022/12/11 02:32:55;;;;;;;56.38;19.40;;;0.30;99.90;;;;;;4987422;28;20538;-66
2022/12/11 02:35:32;;;;;;;49.55;17.42;;;0.20;99.90;;;;;;4978234;28;20047;-66
2022/12/11 02:38:06;;;;;;;54.65;19.15;;;0.30;99.90;;;;;;4985901;28;20085;-66
2022/12/11 02:40:37;;;;;;;55.70;19.23;;;0.30;99.90;;;;;;4964161;28;20577;-66
2022/12/11 02:43:05;;;;;;;;;;;0.30;99.90;;;;;;4979225;28;20145;-66
2022/12/11 02:45:32;;;;;;;52.25;18.35;;;0.30;99.90;;;;;;4997007;28;19944;-66
2022/12/11 02:48:02;;;;;;;47.70;17.83;;;0.30;99.90;;;;;;4996257;28;20516;-66
2022/12/11 02:50:29;;;;;;;59.22;19.50;;;0.20;99.90;;;;;;5072750;28;20052;-66
2022/12/11 02:52:57;;;;;;;50.60;17.45;;;0.30;99.90;;;;;;5056836;28;20052;-66
2022/12/11 02:55:25;;;;;;;51.90;17.70;;;0.40;99.90;;;;;;5053693;28;20049;-66
2022/12/11 02:58:06;;;;;;;54.55;18.45;;;0.30;99.90;;;;;;5077996;28;20044;-66
2022/12/11 03:00:32;;;;;;;53.95;19.90;;;0.30;99.90;;;;;;5073491;28;20100;-66
2022/12/11 03:02:58;;;;;;;51.85;18.20;;;0.30;99.90;;;;;;5053232;28;20044;-66
2022/12/11 03:05:26;;;;;;;52.92;18.80;;;0.50;99.90;;;;;;5058177;28;20404;-66
2022/12/11 03:07:51;;;;;;;51.15;17.92;;;0.30;99.90;;;;;;5043997;28;20048;-66
2022/12/11 03:10:18;;;;;;;54.20;19.10;;;0.40;99.90;;;;;;5055207;28;20040;-66
2022/12/11 03:12:49;;;;;;;55.75;18.98;;;0.40;99.90;;;;;;5071850;28;20036;-66
2022/12/11 03:15:17;;;;;;;55.20;17.88;;;0.50;99.90;;;;;;5072777;28;20037;-66
2022/12/11 03:17:52;;;;;;;45.72;16.90;;;0.40;99.90;;;;;;5050659;28;20046;-66
2022/12/11 03:20:21;;;;;;;53.28;18.95;;;0.40;99.90;;;;;;5056499;28;20048;-66
2022/12/11 03:23:07;;;;;;;53.20;19.30;;;0.40;99.90;;;;;;5052360;28;20048;-66
2022/12/11 03:25:48;;;;;;;54.10;17.98;;;0.40;99.90;;;;;;5040125;28;20049;-66
2022/12/11 03:28:19;;;;;;;51.60;18.50;;;0.50;99.90;;;;;;5055077;28;20049;-66
2022/12/11 03:30:48;;;;;;;46.95;17.48;;;0.50;99.90;;;;;;5071447;28;20041;-66
2022/12/11 03:33:31;;;;;;;46.55;16.83;;;0.50;99.90;;;;;;5077696;28;20079;-66
2022/12/11 03:36:04;;;;;;;55.58;19.35;;;0.40;99.90;;;;;;5073017;28;20043;-66
2022/12/11 03:39:00;;;;;;;46.83;17.75;;;0.40;99.90;;;;;;5075366;28;20097;-66
2022/12/11 03:41:29;;;;;;;48.78;17.83;;;0.50;99.90;;;;;;5075966;28;20056;-66
2022/12/11 03:43:57;;;;;;;51.65;18.70;;;0.50;99.90;;;;;;5060623;28;20037;-66
2022/12/11 03:46:29;;;;;;;47.58;18.30;;;0.60;99.90;;;;;;5075197;28;20037;-66
2022/12/11 03:49:00;;;;;;;56.65;18.35;;;0.50;99.90;;;;;;5060718;28;20045;-66
2022/12/11 03:51:28;;;;;;;57.42;20.02;;;0.50;99.90;;;;;;5069337;28;20460;-66
2022/12/11 03:53:54;;;;;;;51.67;18.83;;;0.50;99.90;;;;;;5067910;28;20036;-66
2022/12/11 03:56:22;;;;;;;53.78;18.80;;;0.50;99.90;;;;;;5067257;28;20055;-66
2022/12/11 03:58:48;;;;;;;50.55;19.25;;;0.60;99.90;;;;;;5084525;28;20031;-66
2022/12/11 04:01:14;;;;;;;52.58;20.38;;;0.60;99.90;;;;;;5069580;28;20466;-66
2022/12/11 04:03:40;;;;;;;51.58;18.45;;;0.50;99.90;;;;;;5060142;28;20047;-66
2022/12/11 04:06:06;;;;;;;52.25;19.02;;;0.60;99.90;;;;;;5063451;28;20076;-66
2022/12/11 04:08:31;;;;;;;53.75;18.65;;;0.60;99.90;;;;;;5055899;28;20486;-66
2022/12/11 04:13:41;;;;;;;52.22;20.05;;;0.50;99.90;;;;;;5066401;28;20151;-66
2022/12/11 04:16:07;;;;;;;50.20;18.75;;;0.70;99.90;;;;;;5082660;28;20122;-66
2022/12/11 04:24:15;;;;;;;55.90;19.98;;;0.60;99.90;;;;;;5062829;28;20121;-66
2022/12/11 04:26:43;;;;;;;55.78;19.83;;;0.60;99.90;;;;;;5067745;28;20051;-66
2022/12/11 04:29:09;;;;;;;54.40;19.85;;;0.60;99.90;;;;;;5054516;28;20057;-66
2022/12/11 04:31:35;;;;;;;55.78;19.48;;;0.60;99.90;;;;;;5068989;28;20390;-66
2022/12/11 04:34:00;;;;;;;52.15;17.30;;;0.60;99.90;;;;;;5084755;28;20165;-66
2022/12/11 04:36:26;;;;;;;51.15;18.70;;;0.60;99.90;;;;;;5064724;28;20048;-66
2022/12/11 04:38:52;;;;;;;56.88;18.90;;;0.70;99.90;;;;;;5065624;28;20097;-66
2022/12/11 04:41:17;;;;;;;54.28;19.38;;;0.70;99.90;;;;;;5056128;28;20052;-66
2022/12/11 04:43:44;;;;;;;54.10;18.13;;;0.70;99.90;;;;;;5084498;28;20085;-66
2022/12/11 04:46:15;;;;;;;51.40;19.25;;;0.60;99.90;;;;;;5073176;28;20044;-66
2022/12/11 04:48:40;;;;;;;52.60;18.70;;;0.70;99.90;;;;;;5053844;28;20056;-66
2022/12/11 04:51:07;;;;;;;56.90;19.35;;;0.70;99.90;;;;;;5043607;28;20049;-66
2022/12/11 04:53:33;;;;;;;57.47;19.63;;;0.70;99.90;;;;;;5066434;28;20044;-66
2022/12/11 04:55:59;;;;;;;58.40;18.70;;;0.60;99.90;;;;;;5053425;28;20500;-66
2022/12/11 04:58:26;;;;;;;60.00;20.20;;;0.70;99.90;;;;;;5068154;28;20119;-67
2022/12/11 05:00:52;;;;;;;58.17;21.25;;;0.70;99.90;;;;;;5050333;28;20049;-67
2022/12/11 05:03:18;;;;;;;50.47;17.58;;;0.60;99.90;;;;;;5060510;28;20132;-67
2022/12/11 05:05:53;;;;;;;62.60;21.33;;;0.70;99.90;;;;;;5060632;28;20075;-67
2022/12/11 05:08:20;;;;;;;56.45;18.88;;;0.60;99.90;;;;;;5077475;28;20469;-67
2022/12/11 05:10:55;;;;;;;63.22;21.65;;;0.70;99.90;;;;;;5051465;28;20435;-67
2022/12/11 05:13:20;;;;;;;62.55;20.30;;;0.70;99.90;;;;;;5075354;28;20048;-67
2022/12/11 05:15:46;;;;;;;64.40;21.42;;;0.50;99.90;;;;;;5072921;28;20096;-67
2022/12/11 05:18:12;;;;;;;58.72;19.25;;;0.60;99.90;;;;;;5073003;28;20048;-67
2022/12/11 05:20:37;;;;;;;55.80;19.30;;;0.50;99.90;;;;;;5068883;28;20045;-67
2022/12/11 05:23:03;;;;;;;50.35;16.88;;;0.60;99.90;;;;;;5054954;28;20044;-67
2022/12/11 05:25:29;;;;;;;53.47;18.73;;;0.70;99.90;;;;;;5050998;28;20132;-66
2022/12/11 05:27:54;;;;;;;54.08;19.52;;;0.70;99.90;;;;;;5072118;28;20097;-66
2022/12/11 05:30:20;;;;;;;56.30;19.33;;;0.60;99.90;;;;;;5050028;28;20049;-66
2022/12/11 05:32:46;;;;;;;54.20;20.02;;;0.70;99.90;;;;;;5054251;28;20135;-67
2022/12/11 05:35:12;;;;;;;55.13;19.38;;;0.60;99.90;;;;;;5058219;28;20078;-67
2022/12/11 05:37:37;;;;;;;49.80;18.58;;;0.60;99.90;;;;;;5073035;28;20043;-67
2022/12/11 05:40:05;;;;;;;53.38;19.00;;;0.70;99.90;;;;;;5050461;28;20447;-67
2022/12/11 05:42:32;;;;;;;54.67;18.92;;;0.70;99.90;;;;;;5051790;28;20059;-67
2022/12/11 05:44:57;;;;;;;52.58;19.92;;;0.70;99.90;;;;;;5048749;28;20049;-67
2022/12/11 05:47:24;;;;;;;55.40;19.23;;;0.60;99.90;;;;;;5068834;28;20045;-67
2022/12/11 05:49:50;;;;;;;58.10;20.48;;;0.60;99.90;;;;;;5067184;28;20455;-66
2022/12/11 05:52:16;;;;;;;52.15;20.23;;;0.60;99.90;;;;;;5052474;28;20079;-66
2022/12/11 05:54:42;;;;;;;51.25;18.48;;;0.60;99.90;;;;;;5057160;28;20663;-67
2022/12/11 05:57:08;;;;;;;56.83;19.17;;;0.60;99.90;;;;;;5077130;28;20164;-66
2022/12/11 05:59:33;;;;;;;52.15;20.13;;;0.70;99.90;;;;;;5064426;28;20044;-67
2022/12/11 06:01:59;;;;;;;59.63;22.08;;;0.70;99.90;;;;;;5067659;28;20056;-66
2022/12/11 06:04:25;;;;;;;53.40;19.95;;;0.70;99.90;;;;;;5046374;28;20052;-66
2022/12/11 06:06:53;;;;;;;53.85;19.92;;;0.70;99.90;;;;;;5046415;28;20124;-67
2022/12/11 06:09:19;;;;;;;49.95;19.70;;;0.70;99.90;;;;;;5058690;28;20044;-67
2022/12/11 06:11:45;;;;;;;50.95;18.85;;;0.70;99.90;;;;;;5070751;28;20088;-67
2022/12/11 06:14:11;;;;;;;54.80;20.95;;;0.80;99.90;;;;;;5084062;28;20041;-67
2022/12/11 06:16:37;;;;;;;47.85;17.90;;;0.70;99.90;;;;;;5068994;28;20049;-66
2022/12/11 06:19:02;;;;;;;49.10;17.95;;;0.70;99.90;;;;;;5071713;28;20063;-67
2022/12/11 06:21:32;;;;;;;51.78;18.13;;;0.70;99.90;;;;;;5065020;28;20049;-67
2022/12/11 06:24:01;;;;;;;46.77;18.17;;;0.70;99.90;;;;;;5054650;28;20045;-67
2022/12/11 06:26:27;;;;;;;49.83;18.85;;;0.80;99.90;;;;;;5066486;28;20048;-67
2022/12/11 06:28:53;;;;;;;50.78;18.92;;;0.80;99.90;;;;;;5066599;28;20044;-67
2022/12/11 06:31:19;;;;;;;45.13;17.30;;;0.70;99.90;;;;;;5052018;28;20060;-67
2022/12/11 06:33:45;;;;;;;53.00;18.10;;;0.70;99.90;;;;;;5058437;28;20048;-67
2022/12/11 06:36:14;;;;;;;45.00;16.73;;;0.70;99.90;;;;;;5063088;28;20079;-66
2022/12/11 06:38:39;;;;;;;46.90;17.35;;;0.90;99.90;;;;;;5051828;28;20079;-67
2022/12/11 06:41:07;;;;;;;45.78;17.25;;;0.90;99.90;;;;;;5074846;28;20049;-67
2022/12/11 06:43:34;;;;;;;41.67;16.70;;;0.90;99.90;;;;;;5069553;28;20049;-67
2022/12/11 06:46:04;;;;;;;44.20;15.48;;;0.80;99.90;;;;;;5055710;28;20441;-67
2022/12/11 06:48:30;;;;;;;44.58;17.70;;;0.90;99.90;;;;;;5046108;28;20048;-67
2022/12/11 06:50:56;;;;;;;49.90;18.20;;;0.80;99.90;;;;;;5054542;28;20036;-67
2022/12/11 06:53:22;;;;;;;49.58;18.55;;;0.90;99.90;;;;;;5068043;28;20060;-67
2022/12/11 06:55:48;;;;;;;49.10;17.63;;;0.90;99.90;;;;;;5053977;28;20045;-67
2022/12/11 06:58:14;;;;;;;40.85;16.98;;;0.90;99.90;;;;;;5073622;28;20048;-66
2022/12/11 07:00:39;;;;;;;45.65;17.73;;;0.80;99.90;;;;;;5050712;28;20172;-67
2022/12/11 07:03:05;;;;;;;49.05;16.27;;;0.90;99.90;;;;;;5049155;28;20395;-67
2022/12/11 07:05:31;;;;;;;44.40;17.13;;;0.80;99.90;;;;;;5053798;28;20104;-67
2022/12/11 07:07:57;;;;;;;43.58;15.93;;;0.80;99.90;;;;;;5077338;28;20104;-67
2022/12/11 07:10:23;;;;;;;44.53;17.25;;;0.90;99.90;;;;;;5053919;28;20053;-67
2022/12/11 07:12:51;;;;;;;48.08;18.65;;;0.80;99.90;;;;;;5053823;28;20052;-67
2022/12/11 07:15:17;;;;;;;47.03;18.02;;;0.80;99.90;;;;;;5056468;28;20052;-67
2022/12/11 07:17:42;;;;;;;51.03;18.85;;;0.80;99.90;;;;;;5052939;28;20049;-67
2022/12/11 07:20:08;;;;;;;57.65;18.83;;;0.80;99.90;;;;;;5072313;28;20052;-67
2022/12/11 07:22:34;;;;;;;48.53;17.27;;;0.80;99.90;;;;;;5052128;28;20072;-66
2022/12/11 07:25:00;;;;;;;48.88;18.30;;;0.90;99.90;;;;;;5048661;28;20531;-66
2022/12/11 07:27:26;;;;;;;42.72;16.10;;;0.90;99.90;;;;;;5069917;28;20037;-67
2022/12/11 07:29:51;;;;;;;51.15;18.83;;;0.90;99.90;;;;;;5071125;28;20068;-66
2022/12/11 07:32:17;;;;;;;53.17;19.10;;;0.80;99.90;;;;;;5051921;28;20051;-66
2022/12/11 07:34:43;;;;;;;50.05;17.77;;;0.80;99.90;;;;;;5055928;28;20048;-67
2022/12/11 07:37:08;;;;;;;47.28;16.90;;;0.90;99.90;;;;;;5075871;28;20215;-66
2022/12/11 07:39:34;;;;;;;56.45;18.10;;;0.90;99.90;;;;;;5052298;28;20063;-66
2022/12/11 07:41:59;;;;;;;48.60;17.48;;;0.80;99.90;;;;;;5051675;28;20076;-66
2022/12/11 07:44:25;;;;;;;47.33;17.75;;;0.90;99.90;;;;;;5051625;28;20040;-67
2022/12/11 07:46:51;;;;;;;47.17;17.73;;;0.90;99.90;;;;;;5068429;28;20269;-67
2022/12/11 07:49:16;;;;;;;58.17;20.13;;;0.90;99.90;;;;;;5063377;28;20075;-67
2022/12/11 07:51:42;;;;;;;64.18;25.23;;;0.90;99.90;;;;;;5052416;28;20051;-67
2022/12/11 07:54:13;;;;;;;61.05;25.10;;;1.00;99.90;;;;;;5064950;28;20063;-66
2022/12/11 07:56:39;;;;;;;54.45;22.55;;;0.90;99.90;;;;;;5087395;28;20064;-67
2022/12/11 07:59:05;;;;;;;54.45;21.40;;;0.90;99.90;;;;;;5057203;28;20051;-67
2022/12/11 08:01:36;;;;;;;48.00;18.42;;;1.00;99.90;;;;;;5068652;28;20458;-67
2022/12/11 08:04:07;;;;;;;54.42;19.67;;;0.90;99.90;;;;;;5069538;28;20543;-67
2022/12/11 08:06:36;;;;;;;48.42;18.88;;;1.00;99.90;;;;;;5068614;28;20044;-67
2022/12/11 08:09:05;;;;;;;55.28;20.33;;;1.00;99.90;;;;;;5061081;28;20111;-67
2022/12/11 08:11:31;;;;;;;50.75;18.98;;;1.00;99.90;;;;;;5060215;28;20047;-66
2022/12/11 08:14:01;;;;;;;51.40;20.60;;;1.00;99.90;;;;;;5060333;28;20558;-66
2022/12/11 08:16:27;;;;;;;49.13;20.08;;;0.90;99.90;;;;;;5062830;28;20123;-66
2022/12/11 08:18:54;;;;;;;52.22;19.63;;;1.00;99.90;;;;;;5082618;28;20128;-67
2022/12/11 08:21:22;;;;;;;50.88;18.25;;;0.90;99.90;;;;;;5082890;28;20388;-65
2022/12/11 08:23:49;;;;;;;49.33;19.73;;;1.00;99.90;;;;;;5082743;28;20052;-67
2022/12/11 08:26:24;;;;;;;47.38;17.90;;;1.00;99.90;;;;;;5062719;28;20104;-67
2022/12/11 08:28:49;;;;;;;51.88;19.33;;;0.90;99.90;;;;;;5060610;28;20059;-67
2022/12/11 08:31:16;;;;;;;55.33;20.05;;;1.00;99.90;;;;;;5064853;28;20052;-66
2022/12/11 08:33:43;;;;;;;64.47;21.08;;;0.90;99.90;;;;;;5064570;28;20048;-67
2022/12/11 08:36:11;;;;;;;56.70;20.50;;;0.90;99.90;;;;;;5054758;28;20056;-69
2022/12/11 08:38:37;;;;;;;55.50;19.15;;;0.90;99.90;;;;;;5047843;28;20514;-70
2022/12/11 08:41:27;;;;;;;55.92;20.95;;;0.90;99.90;;;;;;5055492;28;20055;-68
2022/12/11 08:43:53;;;;;;;53.05;20.60;;;0.90;99.90;;;;;;5067407;28;20076;-70
2022/12/11 08:46:22;;;;;;;55.38;20.50;;;1.00;99.90;;;;;;5061510;28;20084;-69
2022/12/11 08:48:48;;;;;;;55.28;21.38;;;1.00;99.90;;;;;;5067172;28;20436;-70
2022/12/11 08:51:17;;;;;;;58.05;20.52;;;1.00;99.90;;;;;;5062876;28;20036;-69
2022/12/11 08:53:43;;;;;;;59.90;19.73;;;0.90;99.90;;;;;;5082671;28;20040;-68
2022/12/11 08:56:15;;;;;;;58.60;21.42;;;1.00;99.90;;;;;;5059950;28;20044;-66
2022/12/11 08:58:42;;;;;;;54.40;20.40;;;1.00;99.90;;;;;;5062841;28;20044;-66
2022/12/11 09:01:11;;;;;;;59.00;21.45;;;1.00;99.90;;;;;;5063172;28;20103;-66
2022/12/11 09:03:38;;;;;;;57.15;21.27;;;1.10;99.90;;;;;;5067110;28;20041;-66
2022/12/11 09:06:11;;;;;;;57.58;20.63;;;1.00;99.90;;;;;;5084550;28;20045;-66
2022/12/11 09:08:37;;;;;;;54.88;20.27;;;1.10;99.90;;;;;;5060614;28;20036;-66
2022/12/11 09:11:08;;;;;;;63.10;21.92;;;1.00;99.90;;;;;;5083711;28;20119;-66
2022/12/11 09:13:34;;;;;;;52.92;20.27;;;1.00;99.90;;;;;;5067019;28;20048;-66
2022/12/11 09:16:02;;;;;;;59.40;21.85;;;1.10;99.90;;;;;;5085283;28;20036;-66
2022/12/11 09:18:28;;;;;;;56.40;21.40;;;1.00;99.90;;;;;;5062271;28;20059;-66
2022/12/11 09:21:02;;;;;;;53.70;20.63;;;1.10;99.90;;;;;;5045673;28;20040;-65
2022/12/11 09:23:28;;;;;;;49.95;20.70;;;1.00;99.90;;;;;;5071962;28;20059;-69
2022/12/11 09:25:55;;;;;;;51.30;20.00;;;1.10;99.90;;;;;;5041943;28;20071;-67
2022/12/11 09:28:21;;;;;;;55.35;20.50;;;1.10;99.90;;;;;;5069309;28;20048;-70
2022/12/11 09:30:47;;;;;;;54.78;21.23;;;1.10;99.90;;;;;;5067645;28;20104;-69
2022/12/11 09:33:12;;;;;;;56.65;20.48;;;1.00;99.90;;;;;;5050393;28;20059;-69
2022/12/11 09:35:38;;;;;;;53.55;19.95;;;1.10;99.90;;;;;;5059712;28;20095;-70
2022/12/11 09:38:04;;;;;;;60.58;20.77;;;1.10;99.90;;;;;;5049399;28;20048;-69
2022/12/11 09:40:31;;;;;;;50.65;20.20;;;1.00;99.90;;;;;;5045417;28;20094;-69
2022/12/11 09:43:04;;;;;;;49.03;20.75;;;1.10;99.90;;;;;;5053788;28;20048;-69
2022/12/11 09:45:30;;;;;;;52.47;20.27;;;1.20;99.90;;;;;;5073697;28;20056;-69
2022/12/11 09:47:55;;;;;;;48.20;19.70;;;1.10;99.90;;;;;;5067955;28;20055;-65
2022/12/11 09:50:30;;;;;;;48.88;20.48;;;1.20;99.90;;;;;;5081938;28;20189;-65
2022/12/11 09:53:20;;;;;;;54.13;20.10;;;1.20;99.90;;;;;;5061285;28;20170;-65
2022/12/11 09:55:53;;;;;;;51.28;20.35;;;1.30;99.90;;;;;;5047954;28;20047;-66
2022/12/11 09:58:21;;;;;;;51.38;19.83;;;1.30;99.90;;;;;;5013998;28;20049;-65
2022/12/11 10:01:04;;;;;;;54.00;20.63;;;1.40;99.90;;;;;;5033057;28;20055;-65
2022/12/11 10:03:39;;;;;;;55.58;18.88;;;1.30;99.90;;;;;;5038683;28;20076;-65
2022/12/11 10:06:10;;;;;;;55.63;20.95;;;1.30;99.90;;;;;;5060556;28;20052;-65
2022/12/11 10:08:59;;;;;;;50.45;20.05;;;1.30;99.90;;;;;;5058842;28;20048;-65
2022/12/11 10:11:56;;;;;;;53.67;19.90;;;1.20;99.90;;;;;;4994305;28;20087;-65
2022/12/11 10:14:55;;;;;;;51.55;19.70;;;1.40;99.90;;;;;;4976977;28;20043;-65
2022/12/11 10:17:30;;;;;;;48.70;19.40;;;1.20;99.90;;;;;;5006230;28;20089;-65
2022/12/11 10:20:04;;;;;;;52.53;20.70;;;1.30;99.90;;;;;;4966779;28;20134;-65
2022/12/11 10:22:31;;;;;;;45.03;20.40;;;1.30;99.90;;;;;;4976364;28;20054;-65
2022/12/11 10:25:04;;;;;;;48.03;20.10;;;1.30;99.90;;;;;;4953692;28;20046;-65
2022/12/11 10:27:37;;;;;;;53.05;20.95;;;1.30;99.90;;;;;;4991375;28;20046;-65
2022/12/11 10:30:11;;;;;;;53.10;20.98;;;1.20;99.90;;;;;;4973192;28;20089;-65
2022/12/11 10:32:43;;;;;;;53.80;21.40;;;1.30;99.90;;;;;;4989830;28;20085;-65
2022/12/11 10:35:26;;;;;;;45.17;18.83;;;1.20;99.90;;;;;;4967526;28;20123;-65
2022/12/11 10:37:57;;;;;;;49.83;19.83;;;1.20;99.90;;;;;;4993269;28;20046;-66
2022/12/11 10:40:24;;;;;;;50.38;20.98;;;1.40;99.90;;;;;;4970722;28;20129;-66
2022/12/11 10:42:53;;;;;;;53.03;21.25;;;1.30;99.90;;;;;;4980740;28;20067;-66
2022/12/11 10:45:19;;;;;;;52.35;21.92;;;1.30;99.90;;;;;;4988498;28;20141;-65
2022/12/11 10:47:45;;;;;;;54.28;21.95;;;1.40;99.90;;;;;;5002617;28;20546;-66
2022/12/11 10:50:24;;;;;;;50.20;20.75;;;1.40;99.90;;;;;;5034310;28;20059;-67
2022/12/11 10:52:52;;;;;;;52.08;20.58;;;1.40;99.90;;;;;;5061239;28;20095;-67
2022/12/11 10:55:27;;;;;;;51.50;20.50;;;1.40;99.90;;;;;;5034351;28;20053;-67
2022/12/11 10:58:02;;;;;;;55.83;21.98;;;1.30;99.90;;;;;;5057825;28;20037;-67
2022/12/11 11:00:30;;;;;;;49.00;21.05;;;1.40;99.90;;;;;;5052987;28;20518;-67
2022/12/11 11:02:56;;;;;;;49.75;21.33;;;1.30;99.90;;;;;;5060619;28;20068;-67
2022/12/11 11:05:33;;;;;;;54.92;21.25;;;1.40;99.90;;;;;;5039014;28;20080;-67
2022/12/11 11:08:13;;;;;;;47.35;19.40;;;1.30;99.90;;;;;;5061105;28;20048;-67
2022/12/11 11:10:55;;;;;;;51.55;21.27;;;1.40;99.90;;;;;;5047854;28;20143;-64
2022/12/11 11:13:23;;;;;;;55.90;22.48;;;1.30;99.90;;;;;;5076735;28;20109;-67
2022/12/11 11:16:03;;;;;;;48.97;19.27;;;1.40;99.90;;;;;;5039064;28;20052;-67
2022/12/11 11:18:30;;;;;;;51.30;19.77;;;1.40;99.90;;;;;;5053182;28;20129;-64
2022/12/11 11:20:57;;;;;;;48.78;20.63;;;1.40;99.90;;;;;;5049034;28;20163;-64
2022/12/11 11:23:24;;;;;;;49.55;20.75;;;1.40;99.90;;;;;;5080943;28;20036;-65
2022/12/11 11:25:56;;;;;;;54.10;22.30;;;1.40;99.90;;;;;;5037870;28;20060;-64
2022/12/11 11:28:26;;;;;;;57.85;25.13;;;1.40;99.90;;;;;;5056133;28;20079;-65
2022/12/11 11:31:00;;;;;;;52.13;22.70;;;1.40;99.90;;;;;;5045589;28;20360;-65
2022/12/11 11:33:27;;;;;;;51.08;20.63;;;1.50;99.90;;;;;;5072792;28;20037;-64
2022/12/11 11:35:59;;;;;;;52.97;22.10;;;1.50;99.90;;;;;;5038831;28;20051;-63
2022/12/11 11:38:36;;;;;;;49.42;21.88;;;1.40;99.90;;;;;;5059267;28;20040;-64
2022/12/11 11:41:33;;;;;;;51.20;20.95;;;1.50;99.90;;;;;;5034226;28;20052;-65
2022/12/11 11:44:03;;;;;;;51.05;20.88;;;1.50;99.90;;;;;;5058099;28;20069;-64
2022/12/11 11:46:35;;;;;;;49.45;20.77;;;1.50;99.90;;;;;;5044262;28;20045;-64
2022/12/11 11:49:35;;;;;;;48.65;20.42;;;1.50;99.90;;;;;;5063734;28;20056;-64
2022/12/11 11:52:15;;;;;;;48.15;20.80;;;1.50;99.90;;;;;;5075322;28;20043;-65
2022/12/11 11:54:54;;;;;;;47.85;20.70;;;1.40;99.90;;;;;;5068491;28;20124;-63
2022/12/11 11:57:49;;;;;;;49.28;20.83;;;1.50;99.90;;;;;;5032149;28;20037;-62
2022/12/11 12:00:26;;;;;;;47.80;20.40;;;1.60;99.90;;;;;;5037183;28;20161;-65
2022/12/11 12:03:05;;;;;;;47.88;20.95;;;1.50;99.90;;;;;;5057117;28;20069;-63
2022/12/11 12:05:50;;;;;;;44.88;20.27;;;1.50;99.90;;;;;;5038785;28;20076;-65
2022/12/11 12:09:04;;;;;;;50.22;21.30;;;1.50;99.90;;;;;;5041800;28;20049;-66
2022/12/11 12:11:48;;;;;;;39.03;18.25;;;1.50;99.90;;;;;;4951582;28;20114;-66
2022/12/11 12:14:38;;;;;;;46.88;20.25;;;1.60;99.90;;;;;;4960290;28;20058;-66
2022/12/11 12:17:18;;;;;;;46.77;19.27;;;1.50;99.90;;;;;;4979006;28;20054;-66
2022/12/11 12:20:20;;;;;;;48.83;20.05;;;1.50;99.90;;;;;;4983246;28;20282;-66
2022/12/11 12:23:02;;;;;;;50.80;20.70;;;1.50;99.90;;;;;;4993544;28;20042;-66
2022/12/11 12:25:37;;;;;;;48.28;19.65;;;1.60;99.90;;;;;;4959467;28;20177;-66
2022/12/11 12:28:40;;;;;;;46.78;20.50;;;1.60;99.90;;;;;;4992649;28;20121;-66
2022/12/11 12:31:42;;;;;;;47.50;19.13;;;1.50;99.90;;;;;;4982826;28;20069;-66
2022/12/11 12:34:14;;;;;;;50.03;20.63;;;1.60;99.90;;;;;;4974426;28;20094;-66
2022/12/11 12:37:04;;;;;;;48.42;19.95;;;1.50;99.90;;;;;;4968871;28;20049;-66
2022/12/11 12:39:56;;;;;;;47.88;20.45;;;1.60;99.90;;;;;;4975513;28;20070;-66
2022/12/11 12:42:38;;;;;;;48.90;20.52;;;1.60;99.90;;;;;;4980324;28;20110;-67
2022/12/11 12:45:13;;;;;;;50.65;21.98;;;1.60;99.90;;;;;;4971468;28;20061;-66
2022/12/11 12:47:41;;;;;;;45.97;19.80;;;1.60;99.90;;;;;;5005637;28;20063;-66
2022/12/11 12:50:13;;;;;;;47.88;20.45;;;1.60;99.90;;;;;;5037698;28;20049;-66
2022/12/11 12:52:40;;;;;;;48.67;20.90;;;1.60;99.90;;;;;;5057638;28;20048;-66
2022/12/11 12:55:15;;;;;;;55.47;22.90;;;1.60;99.90;;;;;;5039795;28;20051;-66
2022/12/11 12:57:54;;;;;;;50.17;22.38;;;1.60;99.90;;;;;;5041707;28;20060;-66
2022/12/11 13:00:41;;;;;;;49.97;21.20;;;1.60;99.90;;;;;;5035775;28;20060;-66